sensor_id;sensor_type;location;lat;lon;timestamp;pressure;altitude;pressure_sealevel;temperature;humidity
68107;BME280;54892;47.488;19.026;2022-12-16T00:02:45;99242.34;;;1.82;100.00
68107;BME280;54892;47.488;19.026;2022-12-16T00:05:48;99238.31;;;1.86;100.00
68107;BME280;54892;47.488;19.026;2022-12-16T00:08:51;99224.06;;;1.89;100.00
68107;BME280;54892;47.488;19.026;2022-12-16T00:11:57;99227.09;;;1.86;100.00
68107;BME280;54892;47.488;19.026;2022-12-16T00:15:00;99220.66;;;1.88;100.00
68107;BME280;54892;47.488;19.026;2022-12-16T00:18:03;99216.25;;;1.89;100.00
68107;BME280;54892;47.488;19.026;2022-12-16T00:21:07;99214.16;;;1.97;100.00
68107;BME280;54892;47.488;19.026;2022-12-16T00:24:11;99205.78;;;1.95;100.00
68107;BME280;54892;47.488;19.026;2022-12-16T00:27:16;99214.16;;;1.97;100.00
68107;BME280;54892;47.488;19.026;2022-12-16T00:30:19;99216.19;;;1.95;100.00
68107;BME280;54892;47.488;19.026;2022-12-16T00:33:24;99211.69;;;2.03;100.00
68107;BME280;54892;47.488;19.026;2022-12-16T00:36:28;99210.13;;;2.02;100.00
68107;BME280;54892;47.488;19.026;2022-12-16T00:39:31;99207.87;;;2.05;100.00
68107;BME280;54892;47.488;19.026;2022-12-16T00:42:36;99206.53;;;2.15;100.00
68107;BME280;54892;47.488;19.026;2022-12-16T00:45:39;99212.75;;;2.13;100.00
68107;BME280;54892;47.488;19.026;2022-12-16T00:48:43;99219.38;;;2.16;100.00
68107;BME280;54892;47.488;19.026;2022-12-16T00:51:46;99214.00;;;2.11;100.00
68107;BME280;54892;47.488;19.026;2022-12-16T00:54:51;99211.41;;;2.11;100.00
68107;BME280;54892;47.488;19.026;2022-12-16T00:57:56;99208.81;;;2.11;100.00
68107;BME280;54892;47.488;19.026;2022-12-16T01:00:59;99195.88;;;2.04;100.00
68107;BME280;54892;47.488;19.026;2022-12-16T01:04:03;99203.25;;;2.07;100.00
68107;BME280;54892;47.488;19.026;2022-12-16T01:07:07;99186.13;;;2.00;100.00
68107;BME280;54892;47.488;19.026;2022-12-16T01:10:10;99184.66;;;2.04;100.00
68107;BME280;54892;47.488;19.026;2022-12-16T01:13:16;99169.59;;;2.06;100.00
68107;BME280;54892;47.488;19.026;2022-12-16T01:16:20;99171.53;;;2.10;100.00
68107;BME280;54892;47.488;19.026;2022-12-16T01:19:23;99161.22;;;2.04;100.00
68107;BME280;54892;47.488;19.026;2022-12-16T01:22:29;99152.97;;;2.07;100.00
68107;BME280;54892;47.488;19.026;2022-12-16T01:25:33;99148.22;;;2.04;100.00
68107;BME280;54892;47.488;19.026;2022-12-16T01:28:37;99145.59;;;2.04;100.00
68107;BME280;54892;47.488;19.026;2022-12-16T01:31:41;99128.53;;;2.08;100.00
68107;BME280;54892;47.488;19.026;2022-12-16T01:34:48;99128.84;;;2.00;100.00
68107;BME280;54892;47.488;19.026;2022-12-16T01:37:53;99119.13;;;2.07;100.00
68107;BME280;54892;47.488;19.026;2022-12-16T01:40:57;99109.06;;;2.10;100.00
68107;BME280;54892;47.488;19.026;2022-12-16T01:44:14;99103.78;;;1.87;100.00
68107;BME280;54892;47.488;19.026;2022-12-16T01:47:21;99087.50;;;1.91;100.00
68107;BME280;54892;47.488;19.026;2022-12-16T01:50:27;99089.09;;;1.92;100.00
68107;BME280;54892;47.488;19.026;2022-12-16T01:53:32;99082.09;;;1.93;100.00
68107;BME280;54892;47.488;19.026;2022-12-16T01:56:39;99064.66;;;1.93;100.00
68107;BME280;54892;47.488;19.026;2022-12-16T01:59:48;99059.47;;;1.93;100.00
68107;BME280;54892;47.488;19.026;2022-12-16T02:02:54;99053.81;;;1.96;100.00
68107;BME280;54892;47.488;19.026;2022-12-16T02:05:59;99048.03;;;1.94;100.00
68107;BME280;54892;47.488;19.026;2022-12-16T02:09:06;99036.75;;;2.01;100.00
68107;BME280;54892;47.488;19.026;2022-12-16T02:12:18;99026.25;;;2.07;100.00
68107;BME280;54892;47.488;19.026;2022-12-16T02:15:30;99016.94;;;2.00;100.00
68107;BME280;54892;47.488;19.026;2022-12-16T02:18:43;98987.75;;;1.97;100.00
68107;BME280;54892;47.488;19.026;2022-12-16T02:21:58;98974.84;;;1.91;100.00
68107;BME280;54892;47.488;19.026;2022-12-16T02:29:13;98944.72;;;1.95;100.00
68107;BME280;54892;47.488;19.026;2022-12-16T02:32:28;98931.38;;;1.91;100.00
68107;BME280;54892;47.488;19.026;2022-12-16T02:35:40;98921.53;;;1.93;100.00
68107;BME280;54892;47.488;19.026;2022-12-16T02:38:50;98919.84;;;1.99;100.00
68107;BME280;54892;47.488;19.026;2022-12-16T02:42:01;98927.44;;;2.01;100.00
68107;BME280;54892;47.488;19.026;2022-12-16T02:45:11;98916.91;;;1.95;100.00
68107;BME280;54892;47.488;19.026;2022-12-16T02:48:17;98938.06;;;1.99;100.00
68107;BME280;54892;47.488;19.026;2022-12-16T02:51:21;98948.25;;;2.01;100.00
68107;BME280;54892;47.488;19.026;2022-12-16T02:54:27;98936.59;;;2.03;100.00
68107;BME280;54892;47.488;19.026;2022-12-16T02:57:44;98945.88;;;2.11;100.00
68107;BME280;54892;47.488;19.026;2022-12-16T03:00:53;98949.06;;;2.13;100.00
68107;BME280;54892;47.488;19.026;2022-12-16T03:04:07;98951.31;;;2.21;100.00
68107;BME280;54892;47.488;19.026;2022-12-16T03:07:14;98943.75;;;2.20;100.00
68107;BME280;54892;47.488;19.026;2022-12-16T03:10:24;98925.19;;;2.16;100.00
68107;BME280;54892;47.488;19.026;2022-12-16T03:13:31;98931.06;;;2.23;100.00
68107;BME280;54892;47.488;19.026;2022-12-16T03:16:37;98918.50;;;2.20;100.00
68107;BME280;54892;47.488;19.026;2022-12-16T03:19:46;98907.06;;;2.21;100.00
68107;BME280;54892;47.488;19.026;2022-12-16T03:22:53;98907.19;;;2.26;100.00
68107;BME280;54892;47.488;19.026;2022-12-16T03:26:01;98865.41;;;2.45;100.00
68107;BME280;54892;47.488;19.026;2022-12-16T03:29:08;98838.34;;;2.46;100.00
68107;BME280;54892;47.488;19.026;2022-12-16T03:32:16;98897.09;;;2.42;100.00
68107;BME280;54892;47.488;19.026;2022-12-16T03:35:27;98876.91;;;2.49;100.00
68107;BME280;54892;47.488;19.026;2022-12-16T03:38:35;98876.84;;;2.44;100.00
68107;BME280;54892;47.488;19.026;2022-12-16T03:41:39;98897.09;;;2.42;100.00
68107;BME280;54892;47.488;19.026;2022-12-16T03:44:45;98899.34;;;2.50;100.00
68107;BME280;54892;47.488;19.026;2022-12-16T03:47:50;98897.88;;;2.54;100.00
68107;BME280;54892;47.488;19.026;2022-12-16T03:50:56;98898.56;;;2.62;100.00
68107;BME280;54892;47.488;19.026;2022-12-16T03:53:59;98889.28;;;2.54;100.00
68107;BME280;54892;47.488;19.026;2022-12-16T03:57:03;98886.31;;;2.50;100.00
68107;BME280;54892;47.488;19.026;2022-12-16T04:00:09;98884.19;;;2.47;100.00
68107;BME280;54892;47.488;19.026;2022-12-16T04:03:12;98882.81;;;2.56;100.00
68107;BME280;54892;47.488;19.026;2022-12-16T04:06:17;98859.69;;;2.60;100.00
68107;BME280;54892;47.488;19.026;2022-12-16T04:09:21;98855.75;;;2.57;100.00
68107;BME280;54892;47.488;19.026;2022-12-16T04:12:24;98844.75;;;2.55;100.00
68107;BME280;54892;47.488;19.026;2022-12-16T04:15:45;98839.41;;;2.62;100.00
68107;BME280;54892;47.488;19.026;2022-12-16T04:19:09;98841.31;;;2.67;100.00
68107;BME280;54892;47.488;19.026;2022-12-16T04:22:35;98835.66;;;2.70;100.00
68107;BME280;54892;47.488;19.026;2022-12-16T04:25:57;98832.47;;;2.68;100.00
68107;BME280;54892;47.488;19.026;2022-12-16T04:29:01;98817.34;;;2.65;100.00
68107;BME280;54892;47.488;19.026;2022-12-16T04:32:04;98829.19;;;2.72;100.00
68107;BME280;54892;47.488;19.026;2022-12-16T04:35:08;98826.81;;;2.71;100.00
68107;BME280;54892;47.488;19.026;2022-12-16T04:38:27;98827.84;;;2.70;100.00
68107;BME280;54892;47.488;19.026;2022-12-16T04:41:51;98821.38;;;2.72;100.00
68107;BME280;54892;47.488;19.026;2022-12-16T04:45:11;98821.50;;;2.66;100.00
68107;BME280;54892;47.488;19.026;2022-12-16T04:48:32;98817.44;;;2.58;100.00
68107;BME280;54892;47.488;19.026;2022-12-16T04:51:53;98815.75;;;2.64;100.00
68107;BME280;54892;47.488;19.026;2022-12-16T04:55:15;98802.94;;;2.62;100.00
68107;BME280;54892;47.488;19.026;2022-12-16T04:58:36;98828.06;;;2.68;100.00
68107;BME280;54892;47.488;19.026;2022-12-16T05:01:57;98819.44;;;2.68;100.00
68107;BME280;54892;47.488;19.026;2022-12-16T05:05:18;98814.59;;;2.71;100.00
68107;BME280;54892;47.488;19.026;2022-12-16T05:08:39;98812.31;;;2.75;100.00
68107;BME280;54892;47.488;19.026;2022-12-16T05:12:02;98824.00;;;2.72;100.00
68107;BME280;54892;47.488;19.026;2022-12-16T05:15:23;98817.50;;;2.75;100.00
68107;BME280;54892;47.488;19.026;2022-12-16T05:18:44;98795.50;;;2.83;100.00
68107;BME280;54892;47.488;19.026;2022-12-16T05:22:06;98807.28;;;2.85;100.00
68107;BME280;54892;47.488;19.026;2022-12-16T05:25:27;98805.22;;;2.87;100.00
68107;BME280;54892;47.488;19.026;2022-12-16T05:28:48;98786.75;;;2.89;100.00
68107;BME280;54892;47.488;19.026;2022-12-16T05:32:09;98794.66;;;2.94;100.00
68107;BME280;54892;47.488;19.026;2022-12-16T05:35:30;98797.81;;;2.96;100.00
68107;BME280;54892;47.488;19.026;2022-12-16T05:38:48;98802.09;;;3.02;100.00
68107;BME280;54892;47.488;19.026;2022-12-16T05:42:08;98796.19;;;3.07;100.00
68107;BME280;54892;47.488;19.026;2022-12-16T05:45:30;98787.25;;;3.03;100.00
68107;BME280;54892;47.488;19.026;2022-12-16T05:48:50;98800.28;;;3.03;100.00
68107;BME280;54892;47.488;19.026;2022-12-16T05:52:12;98798.78;;;3.07;100.00
68107;BME280;54892;47.488;19.026;2022-12-16T05:55:33;98794.03;;;3.04;100.00
68107;BME280;54892;47.488;19.026;2022-12-16T05:58:54;98799.97;;;3.16;100.00
68107;BME280;54892;47.488;19.026;2022-12-16T06:02:16;98800.38;;;3.08;100.00
68107;BME280;54892;47.488;19.026;2022-12-16T06:05:37;98799.91;;;3.11;100.00
68107;BME280;54892;47.488;19.026;2022-12-16T06:08:58;98810.44;;;3.33;100.00
68107;BME280;54892;47.488;19.026;2022-12-16T06:12:19;98815.88;;;3.32;100.00
68107;BME280;54892;47.488;19.026;2022-12-16T06:15:40;98807.75;;;3.28;100.00
68107;BME280;54892;47.488;19.026;2022-12-16T06:19:06;98808.75;;;3.27;100.00
68107;BME280;54892;47.488;19.026;2022-12-16T06:22:27;98798.19;;;3.34;100.00
68107;BME280;54892;47.488;19.026;2022-12-16T06:25:48;98794.44;;;3.30;100.00
68107;BME280;54892;47.488;19.026;2022-12-16T06:29:09;98801.81;;;3.33;100.00
68107;BME280;54892;47.488;19.026;2022-12-16T06:32:30;98810.97;;;3.35;100.00
68107;BME280;54892;47.488;19.026;2022-12-16T06:35:53;98811.31;;;3.39;100.00
68107;BME280;54892;47.488;19.026;2022-12-16T06:39:14;98813.34;;;3.37;100.00
68107;BME280;54892;47.488;19.026;2022-12-16T06:42:38;98813.56;;;3.35;100.00
68107;BME280;54892;47.488;19.026;2022-12-16T06:45:59;98818.09;;;3.40;100.00
68107;BME280;54892;47.488;19.026;2022-12-16T06:49:19;98816.28;;;3.41;100.00
68107;BME280;54892;47.488;19.026;2022-12-16T06:52:42;98816.53;;;3.39;100.00
68107;BME280;54892;47.488;19.026;2022-12-16T06:56:04;98820.00;;;3.45;100.00
68107;BME280;54892;47.488;19.026;2022-12-16T06:59:21;98816.84;;;3.43;100.00
68107;BME280;54892;47.488;19.026;2022-12-16T07:02:42;98804.56;;;3.43;100.00
68107;BME280;54892;47.488;19.026;2022-12-16T07:06:03;98823.94;;;3.47;100.00
68107;BME280;54892;47.488;19.026;2022-12-16T07:09:26;98831.59;;;3.54;100.00
68107;BME280;54892;47.488;19.026;2022-12-16T07:12:46;98832.16;;;3.56;100.00
68107;BME280;54892;47.488;19.026;2022-12-16T07:16:07;98835.09;;;3.60;100.00
68107;BME280;54892;47.488;19.026;2022-12-16T07:19:29;98821.56;;;3.63;100.00
68107;BME280;54892;47.488;19.026;2022-12-16T07:22:50;98815.31;;;3.64;100.00
68107;BME280;54892;47.488;19.026;2022-12-16T07:26:15;98816.53;;;3.73;100.00
68107;BME280;54892;47.488;19.026;2022-12-16T07:29:36;98824.41;;;3.78;100.00
68107;BME280;54892;47.488;19.026;2022-12-16T07:32:57;98819.59;;;3.70;100.00
68107;BME280;54892;47.488;19.026;2022-12-16T07:36:18;98832.69;;;3.92;100.00
68107;BME280;54892;47.488;19.026;2022-12-16T07:39:38;98843.69;;;3.77;100.00
68107;BME280;54892;47.488;19.026;2022-12-16T07:43:00;98838.16;;;3.74;100.00
68107;BME280;54892;47.488;19.026;2022-12-16T07:46:21;98827.00;;;3.78;100.00
68107;BME280;54892;47.488;19.026;2022-12-16T07:49:42;98831.69;;;3.76;100.00
68107;BME280;54892;47.488;19.026;2022-12-16T07:53:04;98828.28;;;3.76;100.00
68107;BME280;54892;47.488;19.026;2022-12-16T07:56:27;98840.06;;;3.78;100.00
68107;BME280;54892;47.488;19.026;2022-12-16T07:59:49;98848.28;;;3.87;100.00
68107;BME280;54892;47.488;19.026;2022-12-16T08:03:09;98836.34;;;3.91;100.00
68107;BME280;54892;47.488;19.026;2022-12-16T08:06:42;98828.81;;;3.95;100.00
68107;BME280;54892;47.488;19.026;2022-12-16T08:10:03;98852.56;;;3.93;100.00
68107;BME280;54892;47.488;19.026;2022-12-16T08:13:24;98850.81;;;3.99;100.00
68107;BME280;54892;47.488;19.026;2022-12-16T08:16:46;98838.44;;;4.11;100.00
68107;BME280;54892;47.488;19.026;2022-12-16T08:20:08;98844.59;;;4.22;100.00
68107;BME280;54892;47.488;19.026;2022-12-16T08:23:29;98854.56;;;4.48;100.00
68107;BME280;54892;47.488;19.026;2022-12-16T08:26:50;98847.22;;;4.45;100.00
68107;BME280;54892;47.488;19.026;2022-12-16T08:30:12;98841.63;;;4.58;100.00
68107;BME280;54892;47.488;19.026;2022-12-16T08:33:34;98832.63;;;4.49;100.00
68107;BME280;54892;47.488;19.026;2022-12-16T08:36:55;98836.47;;;4.41;100.00
68107;BME280;54892;47.488;19.026;2022-12-16T08:40:17;98831.47;;;4.39;100.00
68107;BME280;54892;47.488;19.026;2022-12-16T08:43:37;98826.87;;;4.47;100.00
68107;BME280;54892;47.488;19.026;2022-12-16T08:46:58;98822.78;;;4.56;100.00
68107;BME280;54892;47.488;19.026;2022-12-16T08:50:20;98837.53;;;4.67;100.00
68107;BME280;54892;47.488;19.026;2022-12-16T08:53:41;98840.75;;;4.75;100.00
68107;BME280;54892;47.488;19.026;2022-12-16T08:57:02;98853.56;;;4.76;100.00
68107;BME280;54892;47.488;19.026;2022-12-16T09:00:23;98852.19;;;4.68;100.00
68107;BME280;54892;47.488;19.026;2022-12-16T09:03:44;98857.66;;;4.67;100.00
68107;BME280;54892;47.488;19.026;2022-12-16T09:07:07;98858.16;;;4.64;100.00
68107;BME280;54892;47.488;19.026;2022-12-16T09:10:27;98878.31;;;4.68;100.00
68107;BME280;54892;47.488;19.026;2022-12-16T09:13:48;98883.19;;;4.60;100.00
68107;BME280;54892;47.488;19.026;2022-12-16T09:17:09;98892.38;;;4.62;100.00
68107;BME280;54892;47.488;19.026;2022-12-16T09:20:30;98882.47;;;4.64;100.00
68107;BME280;54892;47.488;19.026;2022-12-16T09:23:53;98878.31;;;4.68;100.00
68107;BME280;54892;47.488;19.026;2022-12-16T09:27:13;98874.38;;;4.66;100.00
68107;BME280;54892;47.488;19.026;2022-12-16T09:30:34;98884.84;;;4.66;100.00
68107;BME280;54892;47.488;19.026;2022-12-16T09:33:55;98879.91;;;4.69;100.00
68107;BME280;54892;47.488;19.026;2022-12-16T09:37:16;98892.25;;;4.74;100.00
68107;BME280;54892;47.488;19.026;2022-12-16T09:40:39;98897.81;;;4.83;100.00
68107;BME280;54892;47.488;19.026;2022-12-16T09:44:06;98878.84;;;4.65;100.00
68107;BME280;54892;47.488;19.026;2022-12-16T09:47:35;98883.69;;;4.79;100.00
68107;BME280;54892;47.488;19.026;2022-12-16T09:51:03;98897.31;;;4.81;100.00
68107;BME280;54892;47.488;19.026;2022-12-16T09:54:27;98909.50;;;4.75;100.00
68107;BME280;54892;47.488;19.026;2022-12-16T09:57:50;98919.72;;;4.77;100.00
68107;BME280;54892;47.488;19.026;2022-12-16T10:01:11;98907.06;;;4.68;100.00
68107;BME280;54892;47.488;19.026;2022-12-16T10:04:32;98908.91;;;4.68;100.00
68107;BME280;54892;47.488;19.026;2022-12-16T10:07:58;98908.00;;;4.79;100.00
68107;BME280;54892;47.488;19.026;2022-12-16T10:11:25;98917.66;;;4.79;100.00
68107;BME280;54892;47.488;19.026;2022-12-16T10:14:55;98915.16;;;4.67;100.00
68107;BME280;54892;47.488;19.026;2022-12-16T10:18:34;98911.78;;;4.66;100.00
68107;BME280;54892;47.488;19.026;2022-12-16T10:22:02;98919.78;;;4.60;100.00
68107;BME280;54892;47.488;19.026;2022-12-16T10:25:29;98916.44;;;4.64;100.00
68107;BME280;54892;47.488;19.026;2022-12-16T10:28:56;98928.06;;;4.73;100.00
68107;BME280;54892;47.488;19.026;2022-12-16T10:32:29;98926.47;;;4.72;100.00
68107;BME280;54892;47.488;19.026;2022-12-16T10:35:52;98922.56;;;4.75;100.00
68107;BME280;54892;47.488;19.026;2022-12-16T10:39:21;98931.28;;;4.81;100.00
68107;BME280;54892;47.488;19.026;2022-12-16T10:42:47;98929.00;;;4.67;100.00
68107;BME280;54892;47.488;19.026;2022-12-16T10:46:17;98934.94;;;4.80;100.00
68107;BME280;54892;47.488;19.026;2022-12-16T10:49:41;98946.59;;;4.72;100.00
68107;BME280;54892;47.488;19.026;2022-12-16T10:53:04;98942.97;;;4.73;100.00
68107;BME280;54892;47.488;19.026;2022-12-16T10:56:46;98939.00;;;4.70;100.00
68107;BME280;54892;47.488;19.026;2022-12-16T11:00:12;98934.09;;;4.74;100.00
68107;BME280;54892;47.488;19.026;2022-12-16T11:03:35;98942.16;;;4.72;100.00
68107;BME280;54892;47.488;19.026;2022-12-16T11:06:58;98943.44;;;4.70;100.00
68107;BME280;54892;47.488;19.026;2022-12-16T11:10:28;98939.47;;;4.67;100.00
68107;BME280;54892;47.488;19.026;2022-12-16T11:13:49;98946.91;;;4.76;100.00
68107;BME280;54892;47.488;19.026;2022-12-16T11:17:16;98940.22;;;4.85;100.00
68107;BME280;54892;47.488;19.026;2022-12-16T11:20:37;98948.75;;;4.97;100.00
68107;BME280;54892;47.488;19.026;2022-12-16T11:24:10;98951.19;;;4.82;100.00
68107;BME280;54892;47.488;19.026;2022-12-16T11:27:31;98952.13;;;4.76;100.00
68107;BME280;54892;47.488;19.026;2022-12-16T11:30:55;98963.16;;;4.78;100.00
68107;BME280;54892;47.488;19.026;2022-12-16T11:34:18;98965.94;;;4.71;100.00
68107;BME280;54892;47.488;19.026;2022-12-16T11:37:41;98974.34;;;4.73;100.00
68107;BME280;54892;47.488;19.026;2022-12-16T11:41:04;98990.31;;;4.77;100.00
68107;BME280;54892;47.488;19.026;2022-12-16T11:44:28;99003.94;;;4.79;100.00
68107;BME280;54892;47.488;19.026;2022-12-16T11:47:52;99022.66;;;5.87;100.00
68107;BME280;54892;47.488;19.026;2022-12-16T11:51:15;99041.13;;;8.41;100.00
68107;BME280;54892;47.488;19.026;2022-12-16T11:54:37;99040.47;;;9.77;88.57
68107;BME280;54892;47.488;19.026;2022-12-16T11:58:17;99042.91;;;8.97;81.35
68107;BME280;54892;47.488;19.026;2022-12-16T12:01:43;99043.97;;;7.62;88.08
68107;BME280;54892;47.488;19.026;2022-12-16T12:05:10;99038.44;;;6.95;91.33
68107;BME280;54892;47.488;19.026;2022-12-16T12:08:36;99046.44;;;6.35;94.06
68107;BME280;54892;47.488;19.026;2022-12-16T12:12:09;99026.06;;;6.09;95.76
68107;BME280;54892;47.488;19.026;2022-12-16T12:15:38;99008.25;;;5.84;97.65
68107;BME280;54892;47.488;19.026;2022-12-16T12:19:07;98984.00;;;5.67;99.66
68107;BME280;54892;47.488;19.026;2022-12-16T12:22:33;98974.41;;;5.50;100.00
68107;BME280;54892;47.488;19.026;2022-12-16T12:26:08;98974.88;;;5.42;100.00
68107;BME280;54892;47.488;19.026;2022-12-16T12:29:37;98962.41;;;5.27;100.00
68107;BME280;54892;47.488;19.026;2022-12-16T12:33:19;98970.44;;;5.20;100.00
68107;BME280;54892;47.488;19.026;2022-12-16T12:36:50;98977.81;;;5.23;100.00
68107;BME280;54892;47.488;19.026;2022-12-16T12:40:21;98984.22;;;5.38;100.00
68107;BME280;54892;47.488;19.026;2022-12-16T12:43:51;98998.72;;;5.23;100.00
68107;BME280;54892;47.488;19.026;2022-12-16T12:47:16;99007.16;;;5.53;100.00
68107;BME280;54892;47.488;19.026;2022-12-16T12:50:46;98986.91;;;5.43;100.00
68107;BME280;54892;47.488;19.026;2022-12-16T12:54:15;99001.81;;;5.42;100.00
68107;BME280;54892;47.488;19.026;2022-12-16T12:57:40;99010.13;;;5.61;100.00
68107;BME280;54892;47.488;19.026;2022-12-16T13:01:02;99037.09;;;5.62;100.00
68107;BME280;54892;47.488;19.026;2022-12-16T13:04:25;99041.72;;;5.32;100.00
68107;BME280;54892;47.488;19.026;2022-12-16T13:07:48;99037.66;;;5.42;100.00
68107;BME280;54892;47.488;19.026;2022-12-16T13:11:12;99050.13;;;5.34;100.00
68107;BME280;54892;47.488;19.026;2022-12-16T13:14:55;99038.19;;;5.22;100.00
68107;BME280;54892;47.488;19.026;2022-12-16T13:18:26;99047.81;;;5.16;100.00
68107;BME280;54892;47.488;19.026;2022-12-16T13:21:46;99031.81;;;5.34;100.00
68107;BME280;54892;47.488;19.026;2022-12-16T13:25:30;99034.31;;;5.24;100.00
68107;BME280;54892;47.488;19.026;2022-12-16T13:29:06;99017.28;;;5.22;100.00
68107;BME280;54892;47.488;19.026;2022-12-16T13:32:34;99029.09;;;5.24;100.00
68107;BME280;54892;47.488;19.026;2022-12-16T13:35:55;99042.28;;;5.34;100.00
68107;BME280;54892;47.488;19.026;2022-12-16T13:39:22;99056.00;;;5.20;100.00
68107;BME280;54892;47.488;19.026;2022-12-16T13:42:53;99062.81;;;5.21;100.00
68107;BME280;54892;47.488;19.026;2022-12-16T13:46:15;99077.00;;;5.08;100.00
68107;BME280;54892;47.488;19.026;2022-12-16T13:49:40;99089.06;;;5.09;100.00
68107;BME280;54892;47.488;19.026;2022-12-16T13:53:02;99090.41;;;5.11;100.00
68107;BME280;54892;47.488;19.026;2022-12-16T13:56:26;99084.13;;;5.12;100.00
68107;BME280;54892;47.488;19.026;2022-12-16T13:59:52;99108.19;;;5.31;100.00
68107;BME280;54892;47.488;19.026;2022-12-16T14:03:17;99125.59;;;5.21;100.00
68107;BME280;54892;47.488;19.026;2022-12-16T14:06:39;99112.91;;;5.12;100.00
68107;BME280;54892;47.488;19.026;2022-12-16T14:10:01;99123.66;;;5.16;100.00
68107;BME280;54892;47.488;19.026;2022-12-16T14:13:39;99113.03;;;5.23;100.00
68107;BME280;54892;47.488;19.026;2022-12-16T14:17:11;99119.69;;;5.30;100.00
68107;BME280;54892;47.488;19.026;2022-12-16T14:20:40;99115.72;;;5.28;100.00
68107;BME280;54892;47.488;19.026;2022-12-16T14:24:08;99110.66;;;5.21;100.00
68107;BME280;54892;47.488;19.026;2022-12-16T14:27:31;99097.59;;;5.21;100.00
68107;BME280;54892;47.488;19.026;2022-12-16T14:31:02;99097.12;;;5.24;100.00
68107;BME280;54892;47.488;19.026;2022-12-16T14:34:26;99092.47;;;5.31;100.00
68107;BME280;54892;47.488;19.026;2022-12-16T14:37:47;99109.00;;;5.32;100.00
68107;BME280;54892;47.488;19.026;2022-12-16T14:41:04;99128.81;;;5.28;100.00
68107;BME280;54892;47.488;19.026;2022-12-16T14:44:27;99140.47;;;5.20;100.00
68107;BME280;54892;47.488;19.026;2022-12-16T14:47:47;99152.22;;;5.17;100.00
68107;BME280;54892;47.488;19.026;2022-12-16T14:51:25;99139.53;;;5.09;100.00
68107;BME280;54892;47.488;19.026;2022-12-16T14:54:46;99151.25;;;5.24;100.00
68107;BME280;54892;47.488;19.026;2022-12-16T14:58:09;99155.06;;;5.16;100.00
68107;BME280;54892;47.488;19.026;2022-12-16T15:01:30;99154.44;;;5.09;100.00
68107;BME280;54892;47.488;19.026;2022-12-16T15:04:51;99138.44;;;5.05;100.00
68107;BME280;54892;47.488;19.026;2022-12-16T15:08:14;99127.31;;;5.15;100.00
68107;BME280;54892;47.488;19.026;2022-12-16T15:11:35;99118.59;;;5.09;100.00
68107;BME280;54892;47.488;19.026;2022-12-16T15:14:56;99151.75;;;5.03;100.00
68107;BME280;54892;47.488;19.026;2022-12-16T15:18:19;99149.13;;;5.03;100.00
68107;BME280;54892;47.488;19.026;2022-12-16T15:21:41;99147.31;;;5.04;100.00
68107;BME280;54892;47.488;19.026;2022-12-16T15:25:04;99163.78;;;5.05;100.00
68107;BME280;54892;47.488;19.026;2022-12-16T15:28:36;99173.47;;;5.04;100.00
68107;BME280;54892;47.488;19.026;2022-12-16T15:31:57;99199.47;;;5.11;100.00
68107;BME280;54892;47.488;19.026;2022-12-16T15:35:29;99193.75;;;5.14;100.00
68107;BME280;54892;47.488;19.026;2022-12-16T15:38:51;99211.75;;;5.10;100.00
68107;BME280;54892;47.488;19.026;2022-12-16T15:42:21;99224.59;;;5.12;100.00
68107;BME280;54892;47.488;19.026;2022-12-16T15:45:47;99242.09;;;5.11;100.00
68107;BME280;54892;47.488;19.026;2022-12-16T15:49:19;99244.25;;;5.14;100.00
68107;BME280;54892;47.488;19.026;2022-12-16T15:52:42;99233.22;;;5.12;100.00
68107;BME280;54892;47.488;19.026;2022-12-16T15:56:02;99230.44;;;5.19;100.00
68107;BME280;54892;47.488;19.026;2022-12-16T15:59:26;99239.19;;;5.08;100.00
68107;BME280;54892;47.488;19.026;2022-12-16T16:02:48;99242.72;;;5.01;100.00
68107;BME280;54892;47.488;19.026;2022-12-16T16:06:15;99229.09;;;4.99;100.00
68107;BME280;54892;47.488;19.026;2022-12-16T16:09:37;99231.66;;;4.94;100.00
68107;BME280;54892;47.488;19.026;2022-12-16T16:13:10;99221.34;;;4.87;100.00
68107;BME280;54892;47.488;19.026;2022-12-16T16:16:32;99216.31;;;4.86;100.00
68107;BME280;54892;47.488;19.026;2022-12-16T16:19:52;99222.87;;;4.71;100.00
68107;BME280;54892;47.488;19.026;2022-12-16T16:23:13;99240.63;;;4.69;99.91
68107;BME280;54892;47.488;19.026;2022-12-16T16:26:34;99227.22;;;4.66;99.61
68107;BME280;54892;47.488;19.026;2022-12-16T16:29:56;99223.84;;;4.65;99.96
68107;BME280;54892;47.488;19.026;2022-12-16T16:33:17;99231.72;;;4.53;99.57
68107;BME280;54892;47.488;19.026;2022-12-16T16:36:38;99239.59;;;4.41;100.00
68107;BME280;54892;47.488;19.026;2022-12-16T16:39:56;99244.78;;;4.24;99.96
68107;BME280;54892;47.488;19.026;2022-12-16T16:43:18;99230.56;;;4.32;99.97
68107;BME280;54892;47.488;19.026;2022-12-16T16:46:40;99231.66;;;4.36;99.79
68107;BME280;54892;47.488;19.026;2022-12-16T16:50:03;99230.09;;;4.35;99.62
68107;BME280;54892;47.488;19.026;2022-12-16T16:53:23;99220.88;;;4.33;99.28
68107;BME280;54892;47.488;19.026;2022-12-16T16:56:45;99215.03;;;4.25;99.01
68107;BME280;54892;47.488;19.026;2022-12-16T17:00:08;99216.06;;;4.12;98.86
68107;BME280;54892;47.488;19.026;2022-12-16T17:03:28;99224.00;;;4.18;99.16
68107;BME280;54892;47.488;19.026;2022-12-16T17:06:51;99247.28;;;4.19;99.22
68107;BME280;54892;47.488;19.026;2022-12-16T17:10:12;99251.94;;;4.17;99.01
68107;BME280;54892;47.488;19.026;2022-12-16T17:13:32;99259.56;;;4.19;98.91
68107;BME280;54892;47.488;19.026;2022-12-16T17:16:53;99263.41;;;4.16;98.92
68107;BME280;54892;47.488;19.026;2022-12-16T17:20:15;99271.91;;;4.23;98.21
68107;BME280;54892;47.488;19.026;2022-12-16T17:23:34;99284.19;;;4.23;96.87
68107;BME280;54892;47.488;19.026;2022-12-16T17:26:55;99287.34;;;4.25;96.75